sensor_id;sensor_type;location;lat;lon;timestamp;P1;durP1;ratioP1;P2;durP2;ratioP2
50683;SDS011;36654;45.042;38.994;2024-03-06T00:00:57;26.88;;;14.23;;
50683;SDS011;36654;45.042;38.994;2024-03-06T00:03:23;29.13;;;14.27;;
50683;SDS011;36654;45.042;38.994;2024-03-06T00:05:49;23.08;;;13.18;;
50683;SDS011;36654;45.042;38.994;2024-03-06T00:08:14;25.65;;;13.85;;
50683;SDS011;36654;45.042;38.994;2024-03-06T00:10:40;24.27;;;13.25;;
50683;SDS011;36654;45.042;38.994;2024-03-06T00:13:06;22.70;;;13.63;;
50683;SDS011;36654;45.042;38.994;2024-03-06T00:15:33;26.52;;;12.13;;
50683;SDS011;36654;45.042;38.994;2024-03-06T00:17:58;24.35;;;12.75;;
50683;SDS011;36654;45.042;38.994;2024-03-06T00:20:25;26.80;;;14.68;;
50683;SDS011;36654;45.042;38.994;2024-03-06T00:22:51;24.05;;;13.10;;
50683;SDS011;36654;45.042;38.994;2024-03-06T00:25:17;23.25;;;14.60;;
50683;SDS011;36654;45.042;38.994;2024-03-06T00:27:42;23.88;;;13.05;;
50683;SDS011;36654;45.042;38.994;2024-03-06T00:30:08;28.80;;;12.68;;
50683;SDS011;36654;45.042;38.994;2024-03-06T00:32:34;23.67;;;13.43;;
50683;SDS011;36654;45.042;38.994;2024-03-06T00:34:59;21.20;;;12.43;;
50683;SDS011;36654;45.042;38.994;2024-03-06T00:37:25;22.15;;;11.77;;
50683;SDS011;36654;45.042;38.994;2024-03-06T00:39:51;21.35;;;11.88;;
50683;SDS011;36654;45.042;38.994;2024-03-06T00:42:17;22.58;;;12.88;;
50683;SDS011;36654;45.042;38.994;2024-03-06T00:44:42;21.33;;;11.95;;
50683;SDS011;36654;45.042;38.994;2024-03-06T00:47:09;21.13;;;12.32;;
50683;SDS011;36654;45.042;38.994;2024-03-06T00:49:35;23.15;;;12.00;;
50683;SDS011;36654;45.042;38.994;2024-03-06T00:52:00;24.08;;;11.80;;
50683;SDS011;36654;45.042;38.994;2024-03-06T00:54:26;26.08;;;11.65;;
50683;SDS011;36654;45.042;38.994;2024-03-06T00:56:52;23.25;;;11.60;;
50683;SDS011;36654;45.042;38.994;2024-03-06T00:59:17;19.83;;;11.77;;
50683;SDS011;36654;45.042;38.994;2024-03-06T01:01:43;23.17;;;12.15;;
50683;SDS011;36654;45.042;38.994;2024-03-06T01:04:08;21.02;;;12.00;;
50683;SDS011;36654;45.042;38.994;2024-03-06T01:06:34;25.02;;;11.80;;
50683;SDS011;36654;45.042;38.994;2024-03-06T01:09:00;19.45;;;10.93;;
50683;SDS011;36654;45.042;38.994;2024-03-06T01:11:25;21.17;;;11.50;;
50683;SDS011;36654;45.042;38.994;2024-03-06T01:13:51;24.25;;;13.00;;
50683;SDS011;36654;45.042;38.994;2024-03-06T01:16:17;20.67;;;11.80;;
50683;SDS011;36654;45.042;38.994;2024-03-06T01:18:43;21.90;;;11.80;;
50683;SDS011;36654;45.042;38.994;2024-03-06T01:21:08;23.48;;;11.23;;
50683;SDS011;36654;45.042;38.994;2024-03-06T01:23:34;24.73;;;12.10;;
50683;SDS011;36654;45.042;38.994;2024-03-06T01:26:00;23.63;;;11.77;;
50683;SDS011;36654;45.042;38.994;2024-03-06T01:28:26;19.05;;;11.07;;
50683;SDS011;36654;45.042;38.994;2024-03-06T01:30:52;19.38;;;11.15;;
50683;SDS011;36654;45.042;38.994;2024-03-06T01:33:17;19.13;;;11.20;;
50683;SDS011;36654;45.042;38.994;2024-03-06T01:35:43;21.52;;;11.50;;
50683;SDS011;36654;45.042;38.994;2024-03-06T01:38:09;21.13;;;11.82;;
50683;SDS011;36654;45.042;38.994;2024-03-06T01:40:35;21.05;;;11.95;;
50683;SDS011;36654;45.042;38.994;2024-03-06T01:43:01;21.85;;;11.45;;
50683;SDS011;36654;45.042;38.994;2024-03-06T01:45:27;21.95;;;11.50;;
50683;SDS011;36654;45.042;38.994;2024-03-06T01:47:52;22.52;;;11.13;;
50683;SDS011;36654;45.042;38.994;2024-03-06T01:50:18;21.90;;;12.27;;
50683;SDS011;36654;45.042;38.994;2024-03-06T01:52:44;27.30;;;12.20;;
50683;SDS011;36654;45.042;38.994;2024-03-06T01:55:11;25.33;;;11.93;;
50683;SDS011;36654;45.042;38.994;2024-03-06T01:57:38;23.48;;;12.70;;
50683;SDS011;36654;45.042;38.994;2024-03-06T02:00:05;30.75;;;11.93;;
50683;SDS011;36654;45.042;38.994;2024-03-06T02:02:39;22.50;;;11.98;;
50683;SDS011;36654;45.042;38.994;2024-03-06T02:05:06;19.38;;;12.00;;
50683;SDS011;36654;45.042;38.994;2024-03-06T02:07:32;25.38;;;12.70;;
50683;SDS011;36654;45.042;38.994;2024-03-06T02:09:59;26.25;;;13.32;;
50683;SDS011;36654;45.042;38.994;2024-03-06T02:12:24;24.13;;;12.38;;
50683;SDS011;36654;45.042;38.994;2024-03-06T02:14:50;26.58;;;13.30;;
50683;SDS011;36654;45.042;38.994;2024-03-06T02:17:16;25.60;;;13.38;;
50683;SDS011;36654;45.042;38.994;2024-03-06T02:19:42;25.38;;;13.05;;
50683;SDS011;36654;45.042;38.994;2024-03-06T02:22:09;26.65;;;13.85;;
50683;SDS011;36654;45.042;38.994;2024-03-06T02:24:35;26.48;;;13.38;;
50683;SDS011;36654;45.042;38.994;2024-03-06T02:27:02;25.35;;;13.27;;
50683;SDS011;36654;45.042;38.994;2024-03-06T02:29:30;25.55;;;13.32;;
50683;SDS011;36654;45.042;38.994;2024-03-06T02:31:57;28.15;;;14.15;;
50683;SDS011;36654;45.042;38.994;2024-03-06T02:34:23;23.65;;;12.93;;
50683;SDS011;36654;45.042;38.994;2024-03-06T02:36:50;28.20;;;13.82;;
50683;SDS011;36654;45.042;38.994;2024-03-06T02:39:17;24.23;;;13.48;;
50683;SDS011;36654;45.042;38.994;2024-03-06T02:41:43;24.30;;;13.15;;
50683;SDS011;36654;45.042;38.994;2024-03-06T02:44:09;27.70;;;13.73;;
50683;SDS011;36654;45.042;38.994;2024-03-06T02:46:34;33.45;;;15.30;;
50683;SDS011;36654;45.042;38.994;2024-03-06T02:49:00;27.27;;;14.98;;
50683;SDS011;36654;45.042;38.994;2024-03-06T02:51:26;28.92;;;13.88;;
50683;SDS011;36654;45.042;38.994;2024-03-06T02:53:52;27.38;;;14.48;;
50683;SDS011;36654;45.042;38.994;2024-03-06T02:56:18;27.75;;;14.50;;
50683;SDS011;36654;45.042;38.994;2024-03-06T02:58:45;29.17;;;14.55;;
50683;SDS011;36654;45.042;38.994;2024-03-06T03:01:10;24.67;;;14.25;;
50683;SDS011;36654;45.042;38.994;2024-03-06T03:03:40;32.15;;;15.00;;
50683;SDS011;36654;45.042;38.994;2024-03-06T03:06:06;27.33;;;15.05;;
50683;SDS011;36654;45.042;38.994;2024-03-06T03:08:32;26.83;;;14.13;;
50683;SDS011;36654;45.042;38.994;2024-03-06T03:10:58;27.88;;;14.43;;
50683;SDS011;36654;45.042;38.994;2024-03-06T03:13:24;30.98;;;15.07;;
50683;SDS011;36654;45.042;38.994;2024-03-06T03:15:50;31.25;;;14.82;;
50683;SDS011;36654;45.042;38.994;2024-03-06T03:18:16;33.45;;;15.23;;
50683;SDS011;36654;45.042;38.994;2024-03-06T03:20:43;28.58;;;13.25;;
50683;SDS011;36654;45.042;38.994;2024-03-06T03:23:08;29.20;;;14.57;;
50683;SDS011;36654;45.042;38.994;2024-03-06T03:25:37;30.00;;;14.10;;
50683;SDS011;36654;45.042;38.994;2024-03-06T03:28:03;29.45;;;15.02;;
50683;SDS011;36654;45.042;38.994;2024-03-06T03:30:29;33.47;;;15.73;;
50683;SDS011;36654;45.042;38.994;2024-03-06T03:32:55;29.30;;;15.48;;
50683;SDS011;36654;45.042;38.994;2024-03-06T03:35:21;27.38;;;15.40;;
50683;SDS011;36654;45.042;38.994;2024-03-06T03:37:53;26.52;;;14.93;;
50683;SDS011;36654;45.042;38.994;2024-03-06T03:40:20;30.95;;;14.88;;
50683;SDS011;36654;45.042;38.994;2024-03-06T03:42:46;26.67;;;14.10;;
50683;SDS011;36654;45.042;38.994;2024-03-06T03:45:12;29.13;;;14.88;;
50683;SDS011;36654;45.042;38.994;2024-03-06T03:47:38;32.03;;;16.35;;
50683;SDS011;36654;45.042;38.994;2024-03-06T03:50:04;29.13;;;15.50;;
50683;SDS011;36654;45.042;38.994;2024-03-06T03:52:30;26.42;;;14.38;;
50683;SDS011;36654;45.042;38.994;2024-03-06T03:54:55;35.05;;;14.77;;
50683;SDS011;36654;45.042;38.994;2024-03-06T03:57:21;35.92;;;15.82;;
50683;SDS011;36654;45.042;38.994;2024-03-06T03:59:47;28.48;;;15.73;;
50683;SDS011;36654;45.042;38.994;2024-03-06T04:02:12;30.80;;;15.40;;
50683;SDS011;36654;45.042;38.994;2024-03-06T04:04:38;27.83;;;15.65;;
50683;SDS011;36654;45.042;38.994;2024-03-06T04:07:04;30.52;;;15.88;;
50683;SDS011;36654;45.042;38.994;2024-03-06T04:09:31;28.73;;;14.95;;
50683;SDS011;36654;45.042;38.994;2024-03-06T04:12:02;32.67;;;15.73;;
50683;SDS011;36654;45.042;38.994;2024-03-06T04:14:29;30.55;;;15.40;;
50683;SDS011;36654;45.042;38.994;2024-03-06T04:16:55;27.13;;;15.02;;
50683;SDS011;36654;45.042;38.994;2024-03-06T04:19:21;28.92;;;14.23;;
50683;SDS011;36654;45.042;38.994;2024-03-06T04:21:47;33.13;;;14.73;;
50683;SDS011;36654;45.042;38.994;2024-03-06T04:24:12;29.55;;;13.68;;
50683;SDS011;36654;45.042;38.994;2024-03-06T04:26:38;24.70;;;12.57;;
50683;SDS011;36654;45.042;38.994;2024-03-06T04:29:03;30.77;;;14.63;;
50683;SDS011;36654;45.042;38.994;2024-03-06T04:31:29;30.17;;;15.10;;
50683;SDS011;36654;45.042;38.994;2024-03-06T04:33:55;32.20;;;14.38;;
50683;SDS011;36654;45.042;38.994;2024-03-06T04:36:20;32.05;;;15.02;;
50683;SDS011;36654;45.042;38.994;2024-03-06T04:38:46;25.00;;;13.10;;
50683;SDS011;36654;45.042;38.994;2024-03-06T04:41:12;28.80;;;14.30;;
50683;SDS011;36654;45.042;38.994;2024-03-06T04:43:37;23.63;;;12.90;;
50683;SDS011;36654;45.042;38.994;2024-03-06T04:46:03;26.50;;;13.15;;
50683;SDS011;36654;45.042;38.994;2024-03-06T04:48:29;25.95;;;14.98;;
50683;SDS011;36654;45.042;38.994;2024-03-06T04:50:55;28.63;;;13.80;;
50683;SDS011;36654;45.042;38.994;2024-03-06T04:53:21;29.80;;;13.30;;
50683;SDS011;36654;45.042;38.994;2024-03-06T04:55:46;29.20;;;12.93;;
50683;SDS011;36654;45.042;38.994;2024-03-06T04:58:12;28.30;;;14.90;;
50683;SDS011;36654;45.042;38.994;2024-03-06T05:00:38;29.73;;;12.80;;
50683;SDS011;36654;45.042;38.994;2024-03-06T05:03:04;28.02;;;14.23;;
50683;SDS011;36654;45.042;38.994;2024-03-06T05:05:30;25.65;;;13.75;;
50683;SDS011;36654;45.042;38.994;2024-03-06T05:07:56;29.02;;;15.07;;
50683;SDS011;36654;45.042;38.994;2024-03-06T05:10:21;29.08;;;14.68;;
50683;SDS011;36654;45.042;38.994;2024-03-06T05:12:47;34.70;;;13.73;;
50683;SDS011;36654;45.042;38.994;2024-03-06T05:15:13;29.20;;;13.63;;
50683;SDS011;36654;45.042;38.994;2024-03-06T05:17:39;31.55;;;13.90;;
50683;SDS011;36654;45.042;38.994;2024-03-06T05:20:05;36.42;;;15.27;;
50683;SDS011;36654;45.042;38.994;2024-03-06T05:22:31;33.90;;;15.02;;
50683;SDS011;36654;45.042;38.994;2024-03-06T05:24:57;34.30;;;15.07;;
50683;SDS011;36654;45.042;38.994;2024-03-06T05:27:23;26.65;;;13.88;;
50683;SDS011;36654;45.042;38.994;2024-03-06T05:29:49;31.73;;;16.17;;
50683;SDS011;36654;45.042;38.994;2024-03-06T05:32:16;27.33;;;15.48;;
50683;SDS011;36654;45.042;38.994;2024-03-06T05:34:41;38.30;;;16.23;;
50683;SDS011;36654;45.042;38.994;2024-03-06T05:37:07;27.92;;;13.60;;
50683;SDS011;36654;45.042;38.994;2024-03-06T05:39:33;28.48;;;15.57;;
50683;SDS011;36654;45.042;38.994;2024-03-06T05:42:02;27.33;;;13.55;;
50683;SDS011;36654;45.042;38.994;2024-03-06T05:44:29;30.15;;;14.15;;
50683;SDS011;36654;45.042;38.994;2024-03-06T05:46:57;27.27;;;13.80;;
50683;SDS011;36654;45.042;38.994;2024-03-06T05:49:23;26.65;;;13.63;;
50683;SDS011;36654;45.042;38.994;2024-03-06T05:51:50;32.40;;;14.52;;
50683;SDS011;36654;45.042;38.994;2024-03-06T05:54:16;30.42;;;14.88;;
50683;SDS011;36654;45.042;38.994;2024-03-06T05:56:42;32.30;;;15.02;;
50683;SDS011;36654;45.042;38.994;2024-03-06T05:59:08;28.40;;;14.77;;
50683;SDS011;36654;45.042;38.994;2024-03-06T06:01:36;34.97;;;14.32;;
50683;SDS011;36654;45.042;38.994;2024-03-06T06:04:02;28.20;;;14.40;;
50683;SDS011;36654;45.042;38.994;2024-03-06T06:06:28;28.45;;;15.15;;
50683;SDS011;36654;45.042;38.994;2024-03-06T06:08:53;29.42;;;14.85;;
50683;SDS011;36654;45.042;38.994;2024-03-06T06:11:19;34.95;;;14.98;;
50683;SDS011;36654;45.042;38.994;2024-03-06T06:13:45;26.33;;;14.02;;
50683;SDS011;36654;45.042;38.994;2024-03-06T06:16:12;30.80;;;14.25;;
50683;SDS011;36654;45.042;38.994;2024-03-06T06:18:39;32.58;;;15.65;;
50683;SDS011;36654;45.042;38.994;2024-03-06T06:21:07;28.40;;;13.77;;
50683;SDS011;36654;45.042;38.994;2024-03-06T06:23:33;30.50;;;15.35;;
50683;SDS011;36654;45.042;38.994;2024-03-06T06:25:59;30.60;;;14.95;;
50683;SDS011;36654;45.042;38.994;2024-03-06T06:28:25;31.20;;;16.60;;
50683;SDS011;36654;45.042;38.994;2024-03-06T06:30:50;29.75;;;15.82;;
50683;SDS011;36654;45.042;38.994;2024-03-06T06:33:20;30.42;;;15.50;;
50683;SDS011;36654;45.042;38.994;2024-03-06T06:35:46;30.40;;;15.60;;
50683;SDS011;36654;45.042;38.994;2024-03-06T06:38:12;28.80;;;16.70;;
50683;SDS011;36654;45.042;38.994;2024-03-06T06:40:38;31.40;;;16.60;;
50683;SDS011;36654;45.042;38.994;2024-03-06T06:43:05;30.08;;;15.95;;
50683;SDS011;36654;45.042;38.994;2024-03-06T06:45:31;29.92;;;15.70;;
50683;SDS011;36654;45.042;38.994;2024-03-06T06:47:57;33.67;;;15.85;;
50683;SDS011;36654;45.042;38.994;2024-03-06T06:50:23;35.42;;;16.85;;
50683;SDS011;36654;45.042;38.994;2024-03-06T06:52:52;35.50;;;18.48;;
50683;SDS011;36654;45.042;38.994;2024-03-06T06:55:18;33.17;;;16.48;;
50683;SDS011;36654;45.042;38.994;2024-03-06T06:57:45;31.13;;;16.80;;
50683;SDS011;36654;45.042;38.994;2024-03-06T07:00:11;34.63;;;15.95;;
50683;SDS011;36654;45.042;38.994;2024-03-06T07:02:37;33.05;;;17.38;;
50683;SDS011;36654;45.042;38.994;2024-03-06T07:05:04;29.75;;;16.60;;
50683;SDS011;36654;45.042;38.994;2024-03-06T07:07:31;27.73;;;16.27;;
50683;SDS011;36654;45.042;38.994;2024-03-06T07:09:56;35.30;;;16.63;;
50683;SDS011;36654;45.042;38.994;2024-03-06T07:12:24;30.48;;;16.48;;
50683;SDS011;36654;45.042;38.994;2024-03-06T07:14:50;28.80;;;16.55;;
50683;SDS011;36654;45.042;38.994;2024-03-06T07:17:16;31.98;;;16.33;;
50683;SDS011;36654;45.042;38.994;2024-03-06T07:19:41;37.90;;;16.80;;
50683;SDS011;36654;45.042;38.994;2024-03-06T07:22:07;33.08;;;16.10;;
50683;SDS011;36654;45.042;38.994;2024-03-06T07:24:33;33.35;;;16.02;;
50683;SDS011;36654;45.042;38.994;2024-03-06T07:26:59;28.48;;;15.32;;
50683;SDS011;36654;45.042;38.994;2024-03-06T07:29:26;29.75;;;15.68;;
50683;SDS011;36654;45.042;38.994;2024-03-06T07:31:52;28.88;;;16.33;;
50683;SDS011;36654;45.042;38.994;2024-03-06T07:34:19;37.80;;;17.65;;
50683;SDS011;36654;45.042;38.994;2024-03-06T07:36:46;32.78;;;16.70;;
50683;SDS011;36654;45.042;38.994;2024-03-06T07:39:15;31.17;;;17.02;;
50683;SDS011;36654;45.042;38.994;2024-03-06T07:41:41;33.83;;;15.88;;
50683;SDS011;36654;45.042;38.994;2024-03-06T07:44:07;29.10;;;16.10;;
50683;SDS011;36654;45.042;38.994;2024-03-06T07:46:34;33.45;;;17.08;;
50683;SDS011;36654;45.042;38.994;2024-03-06T07:49:00;31.58;;;16.52;;
50683;SDS011;36654;45.042;38.994;2024-03-06T07:51:28;32.05;;;17.23;;
50683;SDS011;36654;45.042;38.994;2024-03-06T07:54:00;35.60;;;17.35;;
50683;SDS011;36654;45.042;38.994;2024-03-06T07:56:27;30.55;;;16.73;;
50683;SDS011;36654;45.042;38.994;2024-03-06T07:58:53;31.83;;;16.65;;
50683;SDS011;36654;45.042;38.994;2024-03-06T08:01:20;34.15;;;17.05;;
50683;SDS011;36654;45.042;38.994;2024-03-06T08:03:48;39.00;;;18.58;;
50683;SDS011;36654;45.042;38.994;2024-03-06T08:06:14;32.95;;;17.63;;
50683;SDS011;36654;45.042;38.994;2024-03-06T08:08:43;35.53;;;17.92;;
50683;SDS011;36654;45.042;38.994;2024-03-06T08:11:12;32.97;;;17.65;;
50683;SDS011;36654;45.042;38.994;2024-03-06T08:13:38;35.35;;;17.65;;
50683;SDS011;36654;45.042;38.994;2024-03-06T08:16:04;40.15;;;17.55;;
50683;SDS011;36654;45.042;38.994;2024-03-06T08:18:32;28.20;;;16.17;;
50683;SDS011;36654;45.042;38.994;2024-03-06T08:20:58;37.53;;;18.52;;
50683;SDS011;36654;45.042;38.994;2024-03-06T08:23:24;30.13;;;16.23;;
50683;SDS011;36654;45.042;38.994;2024-03-06T08:25:50;31.45;;;15.95;;
50683;SDS011;36654;45.042;38.994;2024-03-06T08:28:16;27.15;;;16.30;;
50683;SDS011;36654;45.042;38.994;2024-03-06T08:30:42;28.23;;;15.77;;
50683;SDS011;36654;45.042;38.994;2024-03-06T08:33:09;28.42;;;16.17;;
50683;SDS011;36654;45.042;38.994;2024-03-06T08:35:35;23.48;;;13.50;;
50683;SDS011;36654;45.042;38.994;2024-03-06T08:38:01;30.85;;;16.30;;
50683;SDS011;36654;45.042;38.994;2024-03-06T08:40:27;34.00;;;16.60;;
50683;SDS011;36654;45.042;38.994;2024-03-06T08:42:53;31.40;;;15.27;;
50683;SDS011;36654;45.042;38.994;2024-03-06T08:45:19;29.98;;;14.43;;
50683;SDS011;36654;45.042;38.994;2024-03-06T08:47:45;31.35;;;14.48;;
50683;SDS011;36654;45.042;38.994;2024-03-06T08:50:12;28.27;;;15.43;;
50683;SDS011;36654;45.042;38.994;2024-03-06T08:52:38;31.52;;;15.82;;
50683;SDS011;36654;45.042;38.994;2024-03-06T08:55:04;27.05;;;14.68;;
50683;SDS011;36654;45.042;38.994;2024-03-06T08:59:59;24.00;;;14.15;;
50683;SDS011;36654;45.042;38.994;2024-03-06T09:02:25;27.30;;;14.93;;
50683;SDS011;36654;45.042;38.994;2024-03-06T09:04:51;27.80;;;15.07;;
50683;SDS011;36654;45.042;38.994;2024-03-06T09:07:18;30.92;;;17.38;;
50683;SDS011;36654;45.042;38.994;2024-03-06T09:09:45;25.40;;;15.23;;
50683;SDS011;36654;45.042;38.994;2024-03-06T09:12:11;26.60;;;14.18;;
50683;SDS011;36654;45.042;38.994;2024-03-06T09:14:37;24.90;;;14.40;;
50683;SDS011;36654;45.042;38.994;2024-03-06T09:17:04;27.80;;;13.88;;
50683;SDS011;36654;45.042;38.994;2024-03-06T09:19:31;23.25;;;12.93;;
50683;SDS011;36654;45.042;38.994;2024-03-06T09:21:57;22.77;;;13.07;;
50683;SDS011;36654;45.042;38.994;2024-03-06T09:24:24;24.15;;;13.52;;
50683;SDS011;36654;45.042;38.994;2024-03-06T09:26:50;27.27;;;13.82;;
50683;SDS011;36654;45.042;38.994;2024-03-06T09:29:17;25.92;;;14.18;;
50683;SDS011;36654;45.042;38.994;2024-03-06T09:31:43;28.92;;;13.48;;
50683;SDS011;36654;45.042;38.994;2024-03-06T09:34:09;22.90;;;12.73;;
50683;SDS011;36654;45.042;38.994;2024-03-06T09:36:37;27.73;;;14.55;;
50683;SDS011;36654;45.042;38.994;2024-03-06T09:39:08;26.48;;;12.63;;
50683;SDS011;36654;45.042;38.994;2024-03-06T09:41:34;23.60;;;12.90;;
50683;SDS011;36654;45.042;38.994;2024-03-06T09:44:00;22.48;;;12.73;;
50683;SDS011;36654;45.042;38.994;2024-03-06T09:46:25;26.52;;;12.82;;
50683;SDS011;36654;45.042;38.994;2024-03-06T09:48:52;19.42;;;11.77;;
50683;SDS011;36654;45.042;38.994;2024-03-06T09:51:20;26.23;;;12.10;;
50683;SDS011;36654;45.042;38.994;2024-03-06T09:53:46;19.33;;;11.05;;
50683;SDS011;36654;45.042;38.994;2024-03-06T09:56:16;22.80;;;12.10;;
50683;SDS011;36654;45.042;38.994;2024-03-06T09:58:44;25.45;;;12.57;;
50683;SDS011;36654;45.042;38.994;2024-03-06T10:01:11;21.85;;;12.27;;
50683;SDS011;36654;45.042;38.994;2024-03-06T10:03:38;19.45;;;11.73;;
50683;SDS011;36654;45.042;38.994;2024-03-06T10:06:07;24.45;;;11.93;;
50683;SDS011;36654;45.042;38.994;2024-03-06T10:08:34;21.00;;;11.32;;
50683;SDS011;36654;45.042;38.994;2024-03-06T10:11:00;24.33;;;11.52;;
50683;SDS011;36654;45.042;38.994;2024-03-06T10:13:26;23.65;;;11.52;;
50683;SDS011;36654;45.042;38.994;2024-03-06T10:16:02;22.23;;;11.75;;
50683;SDS011;36654;45.042;38.994;2024-03-06T10:18:29;29.15;;;12.00;;
50683;SDS011;36654;45.042;38.994;2024-03-06T10:20:57;22.35;;;11.85;;
50683;SDS011;36654;45.042;38.994;2024-03-06T10:23:23;25.15;;;11.57;;
50683;SDS011;36654;45.042;38.994;2024-03-06T10:25:50;19.95;;;11.05;;
50683;SDS011;36654;45.042;38.994;2024-03-06T10:28:20;19.48;;;11.25;;
50683;SDS011;36654;45.042;38.994;2024-03-06T10:30:47;17.45;;;10.90;;
50683;SDS011;36654;45.042;38.994;2024-03-06T10:33:14;21.40;;;11.50;;
50683;SDS011;36654;45.042;38.994;2024-03-06T10:35:44;23.15;;;11.48;;
50683;SDS011;36654;45.042;38.994;2024-03-06T10:38:14;24.65;;;11.77;;
50683;SDS011;36654;45.042;38.994;2024-03-06T10:40:41;18.85;;;11.02;;
50683;SDS011;36654;45.042;38.994;2024-03-06T10:43:08;19.17;;;10.48;;
50683;SDS011;36654;45.042;38.994;2024-03-06T10:45:39;19.60;;;11.45;;
50683;SDS011;36654;45.042;38.994;2024-03-06T10:48:08;23.98;;;11.63;;
50683;SDS011;36654;45.042;38.994;2024-03-06T10:50:38;20.17;;;10.68;;
50683;SDS011;36654;45.042;38.994;2024-03-06T10:53:10;22.48;;;10.90;;
50683;SDS011;36654;45.042;38.994;2024-03-06T10:55:40;18.45;;;10.88;;
50683;SDS011;36654;45.042;38.994;2024-03-06T10:58:09;20.67;;;11.05;;
50683;SDS011;36654;45.042;38.994;2024-03-06T11:00:39;19.92;;;10.10;;
50683;SDS011;36654;45.042;38.994;2024-03-06T11:03:07;22.35;;;10.43;;
50683;SDS011;36654;45.042;38.994;2024-03-06T11:05:43;19.48;;;10.90;;
50683;SDS011;36654;45.042;38.994;2024-03-06T11:08:12;21.02;;;10.57;;
50683;SDS011;36654;45.042;38.994;2024-03-06T11:10:40;21.77;;;11.85;;
50683;SDS011;36654;45.042;38.994;2024-03-06T11:13:30;24.50;;;11.88;;
50683;SDS011;36654;45.042;38.994;2024-03-06T11:15:58;20.25;;;11.30;;
50683;SDS011;36654;45.042;38.994;2024-03-06T11:23:28;22.45;;;11.52;;
50683;SDS011;36654;45.042;38.994;2024-03-06T11:26:00;20.27;;;11.35;;
50683;SDS011;36654;45.042;38.994;2024-03-06T11:28:33;22.10;;;11.60;;
50683;SDS011;36654;45.042;38.994;2024-03-06T11:31:04;18.88;;;10.77;;
50683;SDS011;36654;45.042;38.994;2024-03-06T11:33:41;32.90;;;11.75;;
50683;SDS011;36654;45.042;38.994;2024-03-06T11:39:06;25.13;;;11.32;;
50683;SDS011;36654;45.042;38.994;2024-03-06T11:41:49;20.52;;;10.90;;
50683;SDS011;36654;45.042;38.994;2024-03-06T11:44:24;19.60;;;11.27;;
50683;SDS011;36654;45.042;38.994;2024-03-06T11:49:20;16.23;;;10.10;;
50683;SDS011;36654;45.042;38.994;2024-03-06T11:51:52;20.90;;;11.15;;
50683;SDS011;36654;45.042;38.994;2024-03-06T11:54:18;21.20;;;11.20;;
50683;SDS011;36654;45.042;38.994;2024-03-06T11:56:49;27.80;;;11.85;;
50683;SDS011;36654;45.042;38.994;2024-03-06T11:59:16;24.90;;;11.50;;
50683;SDS011;36654;45.042;38.994;2024-03-06T12:01:45;20.77;;;10.95;;
50683;SDS011;36654;45.042;38.994;2024-03-06T12:04:11;23.63;;;10.57;;
50683;SDS011;36654;45.042;38.994;2024-03-06T12:06:38;26.65;;;10.50;;
50683;SDS011;36654;45.042;38.994;2024-03-06T12:09:04;18.65;;;10.52;;
50683;SDS011;36654;45.042;38.994;2024-03-06T12:11:30;20.58;;;10.43;;
50683;SDS011;36654;45.042;38.994;2024-03-06T12:13:56;21.17;;;9.93;;
50683;SDS011;36654;45.042;38.994;2024-03-06T12:16:22;29.38;;;10.60;;
50683;SDS011;36654;45.042;38.994;2024-03-06T12:18:55;15.45;;;9.10;;
50683;SDS011;36654;45.042;38.994;2024-03-06T12:21:27;19.92;;;8.95;;
50683;SDS011;36654;45.042;38.994;2024-03-06T12:24:04;17.42;;;9.25;;
50683;SDS011;36654;45.042;38.994;2024-03-06T12:26:31;20.13;;;8.88;;
50683;SDS011;36654;45.042;38.994;2024-03-06T12:29:10;20.42;;;9.40;;
50683;SDS011;36654;45.042;38.994;2024-03-06T12:31:41;21.67;;;9.02;;
50683;SDS011;36654;45.042;38.994;2024-03-06T12:34:07;16.27;;;8.50;;
50683;SDS011;36654;45.042;38.994;2024-03-06T12:36:34;14.93;;;8.15;;
50683;SDS011;36654;45.042;38.994;2024-03-06T12:39:04;15.77;;;8.70;;
50683;SDS011;36654;45.042;38.994;2024-03-06T12:41:38;19.52;;;8.75;;
50683;SDS011;36654;45.042;38.994;2024-03-06T12:44:05;17.40;;;9.00;;
50683;SDS011;36654;45.042;38.994;2024-03-06T12:46:32;16.83;;;9.35;;
50683;SDS011;36654;45.042;38.994;2024-03-06T12:48:57;19.42;;;8.55;;
50683;SDS011;36654;45.042;38.994;2024-03-06T12:51:23;24.90;;;9.40;;
50683;SDS011;36654;45.042;38.994;2024-03-06T12:53:49;23.27;;;8.73;;
50683;SDS011;36654;45.042;38.994;2024-03-06T12:56:16;18.90;;;8.52;;
50683;SDS011;36654;45.042;38.994;2024-03-06T12:58:42;19.15;;;9.00;;
50683;SDS011;36654;45.042;38.994;2024-03-06T13:01:08;21.48;;;8.73;;
50683;SDS011;36654;45.042;38.994;2024-03-06T13:03:35;14.13;;;8.63;;
50683;SDS011;36654;45.042;38.994;2024-03-06T13:06:02;15.25;;;8.95;;
50683;SDS011;36654;45.042;38.994;2024-03-06T13:08:29;19.08;;;9.48;;
50683;SDS011;36654;45.042;38.994;2024-03-06T13:10:55;23.67;;;10.55;;
50683;SDS011;36654;45.042;38.994;2024-03-06T13:13:21;13.90;;;9.27;;
50683;SDS011;36654;45.042;38.994;2024-03-06T13:15:51;22.73;;;10.07;;
50683;SDS011;36654;45.042;38.994;2024-03-06T13:18:17;16.70;;;9.10;;
50683;SDS011;36654;45.042;38.994;2024-03-06T13:20:43;22.52;;;9.57;;
50683;SDS011;36654;45.042;38.994;2024-03-06T13:23:09;18.65;;;9.07;;
50683;SDS011;36654;45.042;38.994;2024-03-06T13:25:35;21.23;;;9.63;;
50683;SDS011;36654;45.042;38.994;2024-03-06T13:28:01;22.60;;;9.30;;
50683;SDS011;36654;45.042;38.994;2024-03-06T13:30:28;20.15;;;8.77;;
50683;SDS011;36654;45.042;38.994;2024-03-06T13:32:54;19.55;;;9.07;;
50683;SDS011;36654;45.042;38.994;2024-03-06T13:35:19;17.67;;;8.98;;
50683;SDS011;36654;45.042;38.994;2024-03-06T13:37:45;17.67;;;9.15;;
50683;SDS011;36654;45.042;38.994;2024-03-06T13:40:14;24.83;;;9.07;;
50683;SDS011;36654;45.042;38.994;2024-03-06T13:42:40;18.05;;;8.50;;
50683;SDS011;36654;45.042;38.994;2024-03-06T13:45:06;20.40;;;8.40;;
50683;SDS011;36654;45.042;38.994;2024-03-06T13:47:42;21.35;;;9.52;;
50683;SDS011;36654;45.042;38.994;2024-03-06T13:50:09;24.55;;;9.70;;
50683;SDS011;36654;45.042;38.994;2024-03-06T13:52:39;21.27;;;10.10;;
50683;SDS011;36654;45.042;38.994;2024-03-06T13:55:05;16.90;;;9.07;;
50683;SDS011;36654;45.042;38.994;2024-03-06T13:57:32;21.42;;;9.63;;
50683;SDS011;36654;45.042;38.994;2024-03-06T14:00:05;18.73;;;9.23;;
50683;SDS011;36654;45.042;38.994;2024-03-06T14:02:37;15.02;;;8.23;;
50683;SDS011;36654;45.042;38.994;2024-03-06T14:05:03;21.15;;;9.23;;
50683;SDS011;36654;45.042;38.994;2024-03-06T14:07:29;16.73;;;8.63;;
50683;SDS011;36654;45.042;38.994;2024-03-06T14:09:54;16.60;;;8.88;;
50683;SDS011;36654;45.042;38.994;2024-03-06T14:12:22;19.65;;;9.13;;
50683;SDS011;36654;45.042;38.994;2024-03-06T14:14:48;25.80;;;9.57;;
50683;SDS011;36654;45.042;38.994;2024-03-06T14:17:14;23.38;;;9.43;;
50683;SDS011;36654;45.042;38.994;2024-03-06T14:19:40;22.33;;;9.88;;
50683;SDS011;36654;45.042;38.994;2024-03-06T14:22:09;20.88;;;10.23;;